Archon Michail — SVA7823 — position and weather

sailwx.info

Track history (hours):
 
Tides and Currents Weather Stations Pressure Air Temp Water Temp Dewpoint Dewpoint Depression Visibility Wind Speed Wind Dir Waves Ship Positions

Archon Michail

Last reported at 2017-Dec-18 05:00 UTC. Time now 2017-Dec-18 05:21 UTC.
Position N 38°01' E 023°34'.

Length 65 m; draft 3 m.

Type: Ship (hazmat cat A). MMSI: 240043800.

Date/timePositionNaut miles runAvg speedWind from/ knotsBaromVisibWave heightAir tempDewpointWater temp
2017-Dec-18 05:00N 38°01' E 023°34'3 7.0
2017-Dec-18 04:30N 37°57' E 023°34'2 4.1
2017-Dec-18 03:58N 37°58' E 023°37'0 0.0
2017-Dec-18 03:27N 37°58' E 023°37'0 0.0
2017-Dec-18 02:55N 37°58' E 023°37'0 0.0
2017-Dec-18 02:27N 37°58' E 023°37'0 0.0
2017-Dec-18 01:57N 37°58' E 023°37'0 0.0
2017-Dec-18 01:27N 37°58' E 023°37'0 0.0
2017-Dec-18 00:51N 37°58' E 023°37'0 0.0
2017-Dec-18 00:27N 37°58' E 023°37'0 0.0
2017-Dec-17 23:57N 37°58' E 023°37'0 0.0
2017-Dec-17 23:27N 37°58' E 023°37'0 0.0
2017-Dec-17 22:57N 37°57' E 023°37'0 0.0
2017-Dec-17 22:27N 37°58' E 023°37'0 0.0
2017-Dec-17 21:57N 37°58' E 023°37'0 0.0
2017-Dec-17 21:27N 37°58' E 023°37'0 0.0
2017-Dec-17 20:57N 37°58' E 023°37'0 0.0
2017-Dec-17 20:27N 37°58' E 023°37'0 0.0
2017-Dec-17 19:55N 37°58' E 023°37'0 0.0
2017-Dec-17 19:25N 37°58' E 023°37'0 0.0
2017-Dec-17 18:55N 37°58' E 023°37'0 0.0
2017-Dec-17 18:27N 37°58' E 023°37'0 0.0
2017-Dec-17 17:57N 37°58' E 023°37'0 0.0
2017-Dec-17 17:27N 37°58' E 023°37'0 0.0
2017-Dec-17 16:55N 37°58' E 023°37'0 0.0
2017-Dec-17 16:27N 37°58' E 023°37'0 0.0
2017-Dec-17 15:58N 37°58' E 023°37'0 0.0
2017-Dec-17 15:27N 37°58' E 023°37'0 0.0
2017-Dec-17 14:57N 37°58' E 023°37'0 0.0
2017-Dec-17 14:28N 37°58' E 023°37'0 0.0
2017-Dec-17 13:57N 37°58' E 023°37'0 0.0
2017-Dec-17 13:26N 37°58' E 023°37'0 0.0
2017-Dec-17 12:57N 37°58' E 023°37'0 0.0
2017-Dec-17 12:27N 37°58' E 023°37'0 0.0
2017-Dec-17 11:57N 37°58' E 023°37'0 0.0
2017-Dec-17 11:26N 37°58' E 023°37'0 0.0
2017-Dec-17 10:58N 37°58' E 023°37'3 6.4
2017-Dec-17 10:30N 37°57' E 023°33'4 8.4
2017-Dec-17 10:00N 38°02' E 023°32'0 0.3
2017-Dec-17 08:48N 38°02' E 023°32'1 4.3
2017-Dec-17 08:31N 38°01' E 023°33'4 7.6
2017-Dec-17 08:01N 37°57' E 023°34'2 3.2
2017-Dec-17 07:25N 37°58' E 023°37'0 0.0
2017-Dec-17 06:58N 37°58' E 023°37'0 0.0
2017-Dec-17 06:28N 37°58' E 023°37'0 0.0
2017-Dec-17 05:46N 37°58' E 023°37'0 0.0
2017-Dec-17 05:28N 37°58' E 023°37'0 0.0
2017-Dec-17 04:58N 37°58' E 023°37'0 0.0
2017-Dec-17 04:28N 37°58' E 023°37'0 0.0
2017-Dec-17 03:59N 37°58' E 023°37'0 0.0
2017-Dec-17 03:28N 37°58' E 023°37'0 0.0
2017-Dec-17 02:58N 37°58' E 023°37'0 0.0
2017-Dec-17 02:28N 37°58' E 023°37'0 0.0
2017-Dec-17 01:53N 37°58' E 023°37'0 0.0
2017-Dec-17 01:29N 37°58' E 023°37'0 0.0
2017-Dec-17 00:58N 37°58' E 023°37'0 0.0
2017-Dec-17 00:28N 37°58' E 023°37'0 0.0
2017-Dec-16 23:59N 37°58' E 023°37'0 0.0
2017-Dec-16 23:28N 37°58' E 023°37'0 0.0
2017-Dec-16 22:58N 37°58' E 023°37'0 0.0
2017-Dec-16 22:29N 37°58' E 023°37'0 0.0
2017-Dec-16 21:58N 37°58' E 023°37'0 0.0
2017-Dec-16 21:29N 37°58' E 023°37'0 0.0
2017-Dec-16 20:59N 37°58' E 023°37'0 0.0
2017-Dec-16 20:22N 37°58' E 023°37'0 0.0
2017-Dec-16 19:58N 37°58' E 023°37'0 0.0
2017-Dec-16 19:29N 37°58' E 023°37'0 0.0
2017-Dec-16 18:52N 37°58' E 023°37'0 0.0
2017-Dec-16 18:28N 37°58' E 023°37'0 0.0
2017-Dec-16 17:59N 37°58' E 023°37'0 0.0
2017-Dec-16 17:26N 37°58' E 023°37'0 0.0
2017-Dec-16 16:58N 37°58' E 023°37'0 0.0
2017-Dec-16 16:25N 37°58' E 023°37'0 0.0
2017-Dec-16 15:58N 37°58' E 023°37'0 0.0
2017-Dec-16 15:23N 37°58' E 023°37'0 0.0
2017-Dec-16 14:58N 37°58' E 023°37'0 0.0
2017-Dec-16 14:29N 37°58' E 023°37'0 0.0
2017-Dec-16 13:58N 37°58' E 023°37'0 0.0
2017-Dec-16 13:25N 37°58' E 023°37'0 0.0
2017-Dec-16 12:58N 37°58' E 023°37'0 0.0
2017-Dec-16 12:28N 37°58' E 023°37'0 0.0
2017-Dec-16 11:58N 37°58' E 023°37'0 0.0
2017-Dec-16 11:29N 37°58' E 023°37'0 0.0
2017-Dec-16 10:58N 37°58' E 023°37'0 0.0
2017-Dec-16 10:29N 37°58' E 023°37'0 0.0
2017-Dec-16 09:58N 37°58' E 023°37'0 0.0
2017-Dec-16 09:29N 37°58' E 023°37'0 0.3
2017-Dec-16 08:58N 37°58' E 023°36'0 0.0
2017-Dec-16 08:25N 37°58' E 023°37'0 0.0
2017-Dec-16 07:55N 37°58' E 023°37'0 0.0
2017-Dec-16 07:28N 37°58' E 023°37'0 0.0
2017-Dec-16 06:58N 37°58' E 023°36'0 0.0
2017-Dec-16 06:29N 37°58' E 023°37'0 0.1
2017-Dec-16 05:55N 37°58' E 023°36'0 0.4
2017-Dec-16 05:28N 37°58' E 023°37'0 0.0
2017-Dec-16 04:58N 37°58' E 023°37'0 0.0
2017-Dec-16 04:28N 37°58' E 023°37'0 0.0
2017-Dec-16 03:58N 37°58' E 023°37'0 0.0
2017-Dec-16 03:28N 37°58' E 023°37'0 0.0
2017-Dec-16 02:58N 37°58' E 023°37'0 0.0
2017-Dec-16 02:29N 37°58' E 023°37'0 0.0
2017-Dec-16 01:55N 37°58' E 023°37'0 0.0
2017-Dec-16 01:29N 37°58' E 023°37'0 0.0
2017-Dec-16 00:58N 37°58' E 023°37'0 0.0
2017-Dec-16 00:28N 37°58' E 023°37'0 0.0
2017-Dec-15 23:58N 37°58' E 023°37'0 0.0
2017-Dec-15 23:28N 37°57' E 023°37'0 0.0
2017-Dec-15 22:58N 37°58' E 023°37'0 0.0
2017-Dec-15 22:28N 37°58' E 023°37'0 0.0
2017-Dec-15 21:59N 37°58' E 023°37'0 0.0
2017-Dec-15 21:28N 37°58' E 023°37'0 0.0
2017-Dec-15 20:59N 37°58' E 023°37'0 0.0
2017-Dec-15 20:28N 37°58' E 023°37'0 0.0
2017-Dec-15 19:58N 37°58' E 023°37'0 0.0
2017-Dec-15 19:28N 37°58' E 023°37'0 0.1
2017-Dec-15 18:58N 37°58' E 023°37'3 6.6
2017-Dec-15 18:30N 37°58' E 023°33'3 2.9
2017-Dec-15 17:32N 38°01' E 023°32'0 0.0
2017-Dec-15 16:03N 38°01' E 023°32'0 0.0
2017-Dec-15 15:38N 38°01' E 023°32'0 0.0
2017-Dec-15 14:08N 38°01' E 023°32'0 0.4
2017-Dec-15 13:35N 38°01' E 023°33'0 4.3
2017-Dec-15 13:31N 38°01' E 023°33'2 0.3
2017-Dec-15 06:16N 38°02' E 023°36'4 0.4
2017-Dec-14 18:27N 37°58' E 023°37'0 0.0
2017-Dec-14 18:00N 37°58' E 023°37'0 0.0
2017-Dec-14 17:30N 37°58' E 023°37'0 0.0
2017-Dec-14 16:57N 37°58' E 023°37'0 0.0
2017-Dec-14 16:27N 37°58' E 023°37'0 0.0
2017-Dec-14 16:00N 37°58' E 023°37'0 0.0
2017-Dec-14 15:00N 37°58' E 023°37'0 0.0
2017-Dec-14 14:30N 37°58' E 023°37'0 0.0
2017-Dec-14 13:58N 37°58' E 023°37'0 0.0
2017-Dec-14 13:30N 37°58' E 023°37'0 0.0
2017-Dec-14 12:58N 37°58' E 023°37'0 0.0
2017-Dec-14 12:18N 37°58' E 023°37'0 0.0
2017-Dec-14 11:52N 37°58' E 023°37'0 0.0
2017-Dec-14 11:27N 37°58' E 023°37'0 0.0
2017-Dec-14 10:57N 37°58' E 023°37'0 0.0
2017-Dec-14 10:24N 37°58' E 023°37'0 0.0
2017-Dec-14 10:00N 37°58' E 023°37'0 0.0
2017-Dec-14 09:30N 37°58' E 023°37'0 0.0
2017-Dec-14 09:01N 37°58' E 023°37'0 0.0
2017-Dec-14 08:30N 37°58' E 023°37'0 0.0
2017-Dec-14 08:00N 37°58' E 023°37'0 0.0
2017-Dec-14 07:30N 37°58' E 023°37'0 0.0
2017-Dec-14 06:57N 37°58' E 023°37'0 0.0
2017-Dec-14 06:27N 37°58' E 023°37'0 0.4
2017-Dec-14 05:35N 37°57' E 023°36'0 7.2
2017-Dec-14 05:30N 37°57' E 023°36'3 6.6
2017-Dec-14 04:59N 37°60' E 023°33'2 0.2
2017-Dec-13 15:43N 38°01' E 023°35'2 7.4
2017-Dec-13 15:30N 38°00' E 023°34'3 6.6
2017-Dec-13 15:01N 37°57' E 023°35'3 5.0
2017-Dec-13 14:27N 37°57' E 023°38'0 0.0
2017-Dec-13 13:57N 37°57' E 023°38'0 0.0
2017-Dec-13 13:30N 37°57' E 023°38'0 0.0
2017-Dec-13 12:54N 37°57' E 023°38'0 0.0
2017-Dec-13 12:27N 37°57' E 023°38'0 0.0
2017-Dec-13 11:57N 37°57' E 023°38'0 0.0
2017-Dec-13 11:30N 37°57' E 023°38'0 0.0
2017-Dec-13 11:00N 37°57' E 023°38'0 0.0
2017-Dec-13 10:27N 37°57' E 023°38'0 0.2
2017-Dec-13 10:00N 37°57' E 023°38'0 0.9
2017-Dec-13 09:30N 37°57' E 023°38'0 0.0
2017-Dec-13 08:57N 37°57' E 023°38'0 0.0
2017-Dec-13 08:28N 37°57' E 023°38'0 0.0
2017-Dec-13 08:00N 37°57' E 023°38'0 0.0
2017-Dec-13 07:30N 37°57' E 023°38'0 0.1
2017-Dec-13 07:00N 37°57' E 023°38'2 3.1
2017-Dec-13 06:30N 37°57' E 023°36'0 0.9
2017-Dec-13 06:00N 37°58' E 023°37'0 0.0
2017-Dec-13 05:18N 37°58' E 023°37'0 0.0
2017-Dec-13 05:00N 37°58' E 023°37'0 0.0
2017-Dec-13 04:30N 37°58' E 023°37'0 0.0
2017-Dec-13 04:00N 37°58' E 023°37'0 0.0
2017-Dec-13 03:27N 37°58' E 023°37'0 0.0
2017-Dec-13 03:00N 37°58' E 023°37'0 0.0
2017-Dec-13 02:30N 37°58' E 023°37'0 0.0
2017-Dec-13 01:54N 37°58' E 023°37'0 0.0
2017-Dec-13 01:24N 37°58' E 023°37'0 0.0
2017-Dec-13 00:54N 37°58' E 023°37'0 0.0
2017-Dec-13 00:30N 37°58' E 023°37'0 0.0
2017-Dec-12 23:57N 37°58' E 023°37'0 0.0
2017-Dec-12 23:30N 37°58' E 023°37'0 0.0
2017-Dec-12 23:00N 37°58' E 023°37'0 0.0
2017-Dec-12 22:27N 37°58' E 023°37'0 0.0
2017-Dec-12 21:58N 37°58' E 023°37'0 0.0
2017-Dec-12 21:18N 37°58' E 023°37'0 0.0
2017-Dec-12 21:00N 37°58' E 023°37'0 0.0
2017-Dec-12 20:28N 37°58' E 023°37'0 0.0
2017-Dec-12 19:57N 37°58' E 023°37'0 0.0
2017-Dec-12 19:30N 37°58' E 023°37'0 0.0
2017-Dec-12 18:57N 37°58' E 023°37'0 0.0
2017-Dec-12 18:30N 37°58' E 023°37'0 0.0
2017-Dec-12 17:57N 37°58' E 023°37'0 0.0
2017-Dec-12 17:30N 37°58' E 023°37'0 0.0
2017-Dec-12 16:57N 37°58' E 023°37'0 0.2
2017-Dec-12 16:27N 37°57' E 023°37'2 3.2
2017-Dec-12 15:59N 37°57' E 023°38'0 0.0
2017-Dec-12 15:28N 37°57' E 023°38'0 0.0
2017-Dec-12 14:58N 37°57' E 023°38'0 0.0
2017-Dec-12 14:28N 37°57' E 023°38'0 0.0
2017-Dec-12 13:55N 37°57' E 023°38'1 2.3
2017-Dec-12 13:30N 37°56' E 023°37'4 8.7
2017-Dec-12 13:00N 37°53' E 023°33'0 0.8
2017-Dec-12 12:29N 37°53' E 023°32'0 0.0
2017-Dec-12 11:56N 37°53' E 023°32'0 0.0
2017-Dec-12 11:20N 37°53' E 023°32'0 0.1
2017-Dec-12 10:59N 37°53' E 023°32'0 0.0
2017-Dec-12 10:26N 37°53' E 023°32'0 0.2
2017-Dec-12 09:59N 37°53' E 023°32'1 2.4
2017-Dec-12 09:24N 37°52' E 023°32'0 0.0
2017-Dec-12 09:00N 37°52' E 023°32'0 0.0
2017-Dec-12 08:30N 37°52' E 023°32'0 0.0
2017-Dec-12 08:00N 37°52' E 023°32'0 0.0
2017-Dec-12 07:31N 37°52' E 023°32'0 0.0
2017-Dec-12 07:00N 37°52' E 023°32'0 0.0
2017-Dec-12 06:30N 37°52' E 023°32'0 0.1
2017-Dec-12 05:57N 37°52' E 023°32'3 6.0
2017-Dec-12 05:30N 37°54' E 023°34'3 6.3
2017-Dec-12 05:00N 37°57' E 023°34'3 6.8
2017-Dec-12 04:30N 38°01' E 023°34'1 0.2
2017-Dec-11 20:03N 38°02' E 023°36'0 2.6
2017-Dec-11 20:00N 38°02' E 023°35'3 7.1
2017-Dec-11 19:30N 38°02' E 023°31'1 0.1
2017-Dec-11 15:51N 38°02' E 023°31'1 3.2
2017-Dec-11 15:30N 38°01' E 023°32'0 0.0
2017-Dec-11 14:48N 38°01' E 023°32'0 0.0
2017-Dec-11 14:18N 38°01' E 023°32'0 0.1
2017-Dec-11 14:00N 38°01' E 023°32'0 0.2
2017-Dec-11 13:30N 38°01' E 023°32'1 0.9
2017-Dec-11 12:55N 38°01' E 023°32'0 0.0
2017-Dec-11 12:25N 38°01' E 023°32'0 0.0
2017-Dec-11 11:58N 38°01' E 023°32'0 0.1
2017-Dec-11 11:06N 38°01' E 023°32'0 5.3
2017-Dec-11 11:00N 38°00' E 023°33'4 7.5
2017-Dec-11 10:31N 37°57' E 023°35'0 0.3
2017-Dec-11 09:47N 37°57' E 023°35'0 0.0
2017-Dec-11 09:25N 37°57' E 023°35'0 0.0
2017-Dec-11 08:59N 37°57' E 023°35'0 0.0
2017-Dec-11 08:29N 37°57' E 023°35'0 0.0
2017-Dec-11 07:53N 37°57' E 023°35'0 0.0
2017-Dec-11 07:05N 37°57' E 023°35'0 0.1
2017-Dec-11 06:59N 37°57' E 023°35'0 0.0
2017-Dec-11 06:29N 37°57' E 023°35'0 0.0
2017-Dec-11 05:59N 37°57' E 023°35'0 0.0
2017-Dec-11 05:23N 37°57' E 023°35'0 0.0
2017-Dec-11 04:55N 37°57' E 023°35'0 0.0
2017-Dec-11 04:29N 37°57' E 023°35'1 1.3
2017-Dec-11 04:00N 37°57' E 023°36'1 1.8
2017-Dec-11 03:26N 37°58' E 023°37'0 0.0
2017-Dec-11 02:59N 37°58' E 023°37'0 0.0
2017-Dec-11 02:30N 37°58' E 023°37'0 0.0
2017-Dec-11 01:59N 37°58' E 023°37'0 0.0
2017-Dec-11 01:29N 37°58' E 023°37'0 0.0
2017-Dec-11 00:59N 37°58' E 023°37'0 0.0
2017-Dec-11 00:29N 37°58' E 023°37'0 0.0
2017-Dec-10 23:59N 37°58' E 023°37'0 0.0
2017-Dec-10 23:29N 37°58' E 023°37'0 0.0
2017-Dec-10 22:59N 37°58' E 023°37'0 0.0
2017-Dec-10 22:29N 37°58' E 023°37'0 0.0
2017-Dec-10 21:59N 37°58' E 023°37'0 0.0
2017-Dec-10 21:29N 37°58' E 023°37'0 0.0
2017-Dec-10 20:59N 37°58' E 023°37'0 0.0
2017-Dec-10 20:29N 37°58' E 023°37'0 0.0
2017-Dec-10 19:59N 37°58' E 023°37'0 0.0
2017-Dec-10 19:30N 37°58' E 023°37'0 0.0
2017-Dec-10 19:00N 37°58' E 023°37'0 0.0
2017-Dec-10 18:31N 37°58' E 023°37'0 0.0
2017-Dec-10 18:00N 37°58' E 023°37'0 0.0
2017-Dec-10 17:30N 37°58' E 023°37'0 0.0
2017-Dec-10 16:57N 37°58' E 023°37'0 0.0
2017-Dec-10 16:30N 37°58' E 023°37'0 0.0
2017-Dec-10 16:00N 37°58' E 023°37'0 0.0
2017-Dec-10 15:30N 37°58' E 023°37'0 0.2
2017-Dec-10 14:57N 37°58' E 023°37'0 0.3
2017-Dec-10 14:29N 37°58' E 023°36'0 0.0
2017-Dec-10 13:59N 37°58' E 023°36'0 0.0
2017-Dec-10 13:29N 37°58' E 023°36'0 0.0
2017-Dec-10 12:59N 37°58' E 023°36'0 0.1
2017-Dec-10 12:29N 37°58' E 023°36'0 0.4
2017-Dec-10 11:59N 37°57' E 023°37'0 0.1
2017-Dec-10 11:29N 37°57' E 023°37'0 0.0
2017-Dec-10 10:59N 37°58' E 023°37'0 0.0
2017-Dec-10 10:29N 37°58' E 023°37'0 0.0
2017-Dec-10 09:59N 37°58' E 023°37'0 0.0
2017-Dec-10 09:30N 37°58' E 023°37'0 0.0
2017-Dec-10 08:53N 37°58' E 023°37'0 0.0
2017-Dec-10 08:23N 37°58' E 023°37'0 0.0
2017-Dec-10 07:59N 37°58' E 023°37'0 0.0
2017-Dec-10 07:29N 37°58' E 023°37'0 0.0
2017-Dec-10 06:41N 37°58' E 023°37'0 0.0
2017-Dec-10 06:29N 37°58' E 023°37'0 0.0
2017-Dec-10 06:00N 37°58' E 023°37'0 0.0
2017-Dec-10 05:29N 37°58' E 023°37'0 0.0
2017-Dec-10 04:59N 37°58' E 023°37'0 0.0
2017-Dec-10 04:29N 37°58' E 023°37'0 0.0
2017-Dec-10 03:59N 37°58' E 023°37'0 0.0
2017-Dec-10 03:29N 37°58' E 023°37'0 0.0
2017-Dec-10 02:48N 37°58' E 023°37'0 0.0
2017-Dec-10 02:24N 37°58' E 023°37'0 0.0
2017-Dec-10 01:59N 37°58' E 023°37'0 0.0
2017-Dec-10 01:23N 37°58' E 023°37'0 0.0
2017-Dec-10 01:00N 37°58' E 023°37'0 0.0
2017-Dec-10 00:29N 37°58' E 023°37'0 0.0
2017-Dec-09 23:59N 37°58' E 023°37'0 0.0
2017-Dec-09 23:29N 37°57' E 023°37'0 0.0
2017-Dec-09 22:54N 37°58' E 023°37'0 0.0
2017-Dec-09 22:29N 37°58' E 023°37'0 0.0
2017-Dec-09 21:54N 37°58' E 023°37'0 0.0
2017-Dec-09 21:29N 37°58' E 023°37'0 0.0
2017-Dec-09 21:00N 37°58' E 023°37'0 0.0
2017-Dec-09 20:29N 37°58' E 023°37'0 0.0
2017-Dec-09 19:59N 37°58' E 023°37'0 0.0
2017-Dec-09 19:29N 37°58' E 023°37'0 0.0
2017-Dec-09 18:59N 37°58' E 023°37'0 0.0
2017-Dec-09 18:29N 37°58' E 023°37'0 0.0
2017-Dec-09 17:59N 37°58' E 023°37'0 0.0
2017-Dec-09 17:29N 37°58' E 023°37'0 0.0
2017-Dec-09 16:53N 37°58' E 023°37'0 0.0
2017-Dec-09 16:29N 37°58' E 023°37'0 0.0
2017-Dec-09 15:59N 37°58' E 023°37'0 0.0
2017-Dec-09 15:29N 37°58' E 023°37'0 0.0
2017-Dec-09 14:47N 37°58' E 023°37'0 0.0
2017-Dec-09 14:30N 37°58' E 023°37'0 0.0
2017-Dec-09 13:59N 37°58' E 023°37'0 0.0
2017-Dec-09 13:29N 37°58' E 023°37'0 0.0
2017-Dec-09 13:00N 37°58' E 023°37'0 0.0
2017-Dec-09 12:29N 37°58' E 023°37'0 0.0
2017-Dec-09 11:59N 37°58' E 023°37'0 0.0
2017-Dec-09 11:29N 37°58' E 023°37'0 0.0
2017-Dec-09 10:59N 37°58' E 023°37'0 0.0
2017-Dec-09 10:27N 37°58' E 023°37'0 0.0
2017-Dec-09 09:56N 37°58' E 023°37'1 2.8
2017-Dec-09 09:30N 37°56' E 023°37'1 2.0
2017-Dec-09 08:59N 37°57' E 023°38'0 0.0
2017-Dec-09 08:29N 37°57' E 023°38'0 0.0
2017-Dec-09 07:59N 37°57' E 023°38'0 0.0
2017-Dec-09 07:27N 37°57' E 023°38'0 0.0
2017-Dec-09 06:59N 37°57' E 023°38'0 0.0
2017-Dec-09 06:29N 37°57' E 023°38'0 0.1
2017-Dec-09 06:00N 37°57' E 023°38'3 5.6
2017-Dec-09 05:31N 37°57' E 023°35'3 6.3
2017-Dec-09 05:00N 37°60' E 023°33'2 0.3
2017-Dec-08 21:49N 38°02' E 023°35'0 0.3
2017-Dec-08 20:28N 38°02' E 023°35'3 5.6
2017-Dec-08 20:00N 38°02' E 023°32'0 0.1
2017-Dec-08 18:20N 38°02' E 023°32'0 0.3
2017-Dec-08 17:56N 38°02' E 023°32'0 0.1
2017-Dec-08 16:27N 38°02' E 023°32'0 0.8
2017-Dec-08 16:00N 38°01' E 023°32'4 7.9
2017-Dec-08 15:30N 37°57' E 023°33'3 5.1
2017-Dec-08 15:00N 37°57' E 023°36'0 0.3
2017-Dec-08 14:24N 37°58' E 023°37'0 0.0
2017-Dec-08 14:00N 37°58' E 023°37'0 0.0
2017-Dec-08 13:30N 37°58' E 023°37'0 0.0
2017-Dec-08 12:57N 37°58' E 023°37'0 0.0
2017-Dec-08 12:30N 37°58' E 023°37'0 0.0
2017-Dec-08 12:00N 37°58' E 023°37'0 0.0
2017-Dec-08 11:30N 37°58' E 023°37'0 0.0
2017-Dec-08 10:57N 37°58' E 023°37'0 0.0
2017-Dec-08 10:30N 37°58' E 023°37'0 0.0
2017-Dec-08 09:54N 37°58' E 023°37'0 0.0
2017-Dec-08 09:27N 37°58' E 023°37'0 0.0
2017-Dec-08 09:00N 37°58' E 023°37'0 0.0
2017-Dec-08 08:30N 37°58' E 023°37'0 0.0
2017-Dec-08 08:00N 37°58' E 023°37'0 0.0
2017-Dec-08 07:30N 37°58' E 023°37'0 0.0
2017-Dec-08 07:00N 37°58' E 023°37'0 0.0
2017-Dec-08 06:27N 37°58' E 023°37'0 0.0
2017-Dec-08 06:00N 37°58' E 023°37'0 0.0
2017-Dec-08 05:27N 37°58' E 023°37'0 0.0
2017-Dec-08 05:00N 37°58' E 023°37'  
Track history (hours):
 
Tides and Currents Weather Stations Pressure Air Temp Water Temp Dewpoint Dewpoint Depression Visibility Wind Speed Wind Dir Waves Ship Positions

Archon Michail

Last reported at 2017-Dec-18 05:00 UTC. Time now 2017-Dec-18 05:21 UTC.
Position N 38°01' E 023°34'.

Length 65 m; draft 3 m.

Type: Ship (hazmat cat A). MMSI: 240043800.

Date/timePositionNaut miles runAvg speedWind from/ knotsBaromVisibWave heightAir tempDewpointWater temp
2017-Dec-18 05:00N 38°01' E 023°34'3 7.0
2017-Dec-18 04:30N 37°57' E 023°34'2 4.1
2017-Dec-18 03:58N 37°58' E 023°37'0 0.0
2017-Dec-18 03:27N 37°58' E 023°37'0 0.0
2017-Dec-18 02:55N 37°58' E 023°37'0 0.0
2017-Dec-18 02:27N 37°58' E 023°37'0 0.0
2017-Dec-18 01:57N 37°58' E 023°37'0 0.0
2017-Dec-18 01:27N 37°58' E 023°37'0 0.0
2017-Dec-18 00:51N 37°58' E 023°37'0 0.0
2017-Dec-18 00:27N 37°58' E 023°37'0 0.0
2017-Dec-17 23:57N 37°58' E 023°37'0 0.0
2017-Dec-17 23:27N 37°58' E 023°37'0 0.0
2017-Dec-17 22:57N 37°57' E 023°37'0 0.0
2017-Dec-17 22:27N 37°58' E 023°37'0 0.0
2017-Dec-17 21:57N 37°58' E 023°37'0 0.0
2017-Dec-17 21:27N 37°58' E 023°37'0 0.0
2017-Dec-17 20:57N 37°58' E 023°37'0 0.0
2017-Dec-17 20:27N 37°58' E 023°37'0 0.0
2017-Dec-17 19:55N 37°58' E 023°37'0 0.0
2017-Dec-17 19:25N 37°58' E 023°37'0 0.0
2017-Dec-17 18:55N 37°58' E 023°37'0 0.0
2017-Dec-17 18:27N 37°58' E 023°37'0 0.0
2017-Dec-17 17:57N 37°58' E 023°37'0 0.0
2017-Dec-17 17:27N 37°58' E 023°37'0 0.0
2017-Dec-17 16:55N 37°58' E 023°37'0 0.0
2017-Dec-17 16:27N 37°58' E 023°37'0 0.0
2017-Dec-17 15:58N 37°58' E 023°37'0 0.0
2017-Dec-17 15:27N 37°58' E 023°37'0 0.0
2017-Dec-17 14:57N 37°58' E 023°37'0 0.0
2017-Dec-17 14:28N 37°58' E 023°37'0 0.0
2017-Dec-17 13:57N 37°58' E 023°37'0 0.0
2017-Dec-17 13:26N 37°58' E 023°37'0 0.0
2017-Dec-17 12:57N 37°58' E 023°37'0 0.0
2017-Dec-17 12:27N 37°58' E 023°37'0 0.0
2017-Dec-17 11:57N 37°58' E 023°37'0 0.0
2017-Dec-17 11:26N 37°58' E 023°37'0 0.0
2017-Dec-17 10:58N 37°58' E 023°37'3 6.4
2017-Dec-17 10:30N 37°57' E 023°33'4 8.4
2017-Dec-17 10:00N 38°02' E 023°32'0 0.3
2017-Dec-17 08:48N 38°02' E 023°32'1 4.3
2017-Dec-17 08:31N 38°01' E 023°33'4 7.6
2017-Dec-17 08:01N 37°57' E 023°34'2 3.2
2017-Dec-17 07:25N 37°58' E 023°37'0 0.0
2017-Dec-17 06:58N 37°58' E 023°37'0 0.0
2017-Dec-17 06:28N 37°58' E 023°37'0 0.0
2017-Dec-17 05:46N 37°58' E 023°37'0 0.0
2017-Dec-17 05:28N 37°58' E 023°37'0 0.0
2017-Dec-17 04:58N 37°58' E 023°37'0 0.0
2017-Dec-17 04:28N 37°58' E 023°37'0 0.0
2017-Dec-17 03:59N 37°58' E 023°37'0 0.0
2017-Dec-17 03:28N 37°58' E 023°37'0 0.0
2017-Dec-17 02:58N 37°58' E 023°37'0 0.0
2017-Dec-17 02:28N 37°58' E 023°37'0 0.0
2017-Dec-17 01:53N 37°58' E 023°37'0 0.0
2017-Dec-17 01:29N 37°58' E 023°37'0 0.0
2017-Dec-17 00:58N 37°58' E 023°37'0 0.0
2017-Dec-17 00:28N 37°58' E 023°37'0 0.0
2017-Dec-16 23:59N 37°58' E 023°37'0 0.0
2017-Dec-16 23:28N 37°58' E 023°37'0 0.0
2017-Dec-16 22:58N 37°58' E 023°37'0 0.0
2017-Dec-16 22:29N 37°58' E 023°37'0 0.0
2017-Dec-16 21:58N 37°58' E 023°37'0 0.0
2017-Dec-16 21:29N 37°58' E 023°37'0 0.0
2017-Dec-16 20:59N 37°58' E 023°37'0 0.0
2017-Dec-16 20:22N 37°58' E 023°37'0 0.0
2017-Dec-16 19:58N 37°58' E 023°37'0 0.0
2017-Dec-16 19:29N 37°58' E 023°37'0 0.0
2017-Dec-16 18:52N 37°58' E 023°37'0 0.0
2017-Dec-16 18:28N 37°58' E 023°37'0 0.0
2017-Dec-16 17:59N 37°58' E 023°37'0 0.0
2017-Dec-16 17:26N 37°58' E 023°37'0 0.0
2017-Dec-16 16:58N 37°58' E 023°37'0 0.0
2017-Dec-16 16:25N 37°58' E 023°37'0 0.0
2017-Dec-16 15:58N 37°58' E 023°37'0 0.0
2017-Dec-16 15:23N 37°58' E 023°37'0 0.0
2017-Dec-16 14:58N 37°58' E 023°37'0 0.0
2017-Dec-16 14:29N 37°58' E 023°37'0 0.0
2017-Dec-16 13:58N 37°58' E 023°37'0 0.0
2017-Dec-16 13:25N 37°58' E 023°37'0 0.0
2017-Dec-16 12:58N 37°58' E 023°37'0 0.0
2017-Dec-16 12:28N 37°58' E 023°37'0 0.0
2017-Dec-16 11:58N 37°58' E 023°37'0 0.0
2017-Dec-16 11:29N 37°58' E 023°37'0 0.0
2017-Dec-16 10:58N 37°58' E 023°37'0 0.0
2017-Dec-16 10:29N 37°58' E 023°37'0 0.0
2017-Dec-16 09:58N 37°58' E 023°37'0 0.0
2017-Dec-16 09:29N 37°58' E 023°37'0 0.3
2017-Dec-16 08:58N 37°58' E 023°36'0 0.0
2017-Dec-16 08:25N 37°58' E 023°37'0 0.0
2017-Dec-16 07:55N 37°58' E 023°37'0 0.0
2017-Dec-16 07:28N 37°58' E 023°37'0 0.0
2017-Dec-16 06:58N 37°58' E 023°36'0 0.0
2017-Dec-16 06:29N 37°58' E 023°37'0 0.1
2017-Dec-16 05:55N 37°58' E 023°36'0 0.4
2017-Dec-16 05:28N 37°58' E 023°37'0 0.0
2017-Dec-16 04:58N 37°58' E 023°37'0 0.0
2017-Dec-16 04:28N 37°58' E 023°37'0 0.0
2017-Dec-16 03:58N 37°58' E 023°37'0 0.0
2017-Dec-16 03:28N 37°58' E 023°37'0 0.0
2017-Dec-16 02:58N 37°58' E 023°37'0 0.0
2017-Dec-16 02:29N 37°58' E 023°37'0 0.0
2017-Dec-16 01:55N 37°58' E 023°37'0 0.0
2017-Dec-16 01:29N 37°58' E 023°37'0 0.0
2017-Dec-16 00:58N 37°58' E 023°37'0 0.0
2017-Dec-16 00:28N 37°58' E 023°37'0 0.0
2017-Dec-15 23:58N 37°58' E 023°37'0 0.0
2017-Dec-15 23:28N 37°57' E 023°37'0 0.0
2017-Dec-15 22:58N 37°58' E 023°37'0 0.0
2017-Dec-15 22:28N 37°58' E 023°37'0 0.0
2017-Dec-15 21:59N 37°58' E 023°37'0 0.0
2017-Dec-15 21:28N 37°58' E 023°37'0 0.0
2017-Dec-15 20:59N 37°58' E 023°37'0 0.0
2017-Dec-15 20:28N 37°58' E 023°37'0 0.0
2017-Dec-15 19:58N 37°58' E 023°37'0 0.0
2017-Dec-15 19:28N 37°58' E 023°37'0 0.1
2017-Dec-15 18:58N 37°58' E 023°37'3 6.6
2017-Dec-15 18:30N 37°58' E 023°33'3 2.9
2017-Dec-15 17:32N 38°01' E 023°32'0 0.0
2017-Dec-15 16:03N 38°01' E 023°32'0 0.0
2017-Dec-15 15:38N 38°01' E 023°32'0 0.0
2017-Dec-15 14:08N 38°01' E 023°32'0 0.4
2017-Dec-15 13:35N 38°01' E 023°33'0 4.3
2017-Dec-15 13:31N 38°01' E 023°33'2 0.3
2017-Dec-15 06:16N 38°02' E 023°36'4 0.4
2017-Dec-14 18:27N 37°58' E 023°37'0 0.0
2017-Dec-14 18:00N 37°58' E 023°37'0 0.0
2017-Dec-14 17:30N 37°58' E 023°37'0 0.0
2017-Dec-14 16:57N 37°58' E 023°37'0 0.0
2017-Dec-14 16:27N 37°58' E 023°37'0 0.0
2017-Dec-14 16:00N 37°58' E 023°37'0 0.0
2017-Dec-14 15:00N 37°58' E 023°37'0 0.0
2017-Dec-14 14:30N 37°58' E 023°37'0 0.0
2017-Dec-14 13:58N 37°58' E 023°37'0 0.0
2017-Dec-14 13:30N 37°58' E 023°37'0 0.0
2017-Dec-14 12:58N 37°58' E 023°37'0 0.0
2017-Dec-14 12:18N 37°58' E 023°37'0 0.0
2017-Dec-14 11:52N 37°58' E 023°37'0 0.0
2017-Dec-14 11:27N 37°58' E 023°37'0 0.0
2017-Dec-14 10:57N 37°58' E 023°37'0 0.0
2017-Dec-14 10:24N 37°58' E 023°37'0 0.0
2017-Dec-14 10:00N 37°58' E 023°37'0 0.0
2017-Dec-14 09:30N 37°58' E 023°37'0 0.0
2017-Dec-14 09:01N 37°58' E 023°37'0 0.0
2017-Dec-14 08:30N 37°58' E 023°37'0 0.0
2017-Dec-14 08:00N 37°58' E 023°37'0 0.0
2017-Dec-14 07:30N 37°58' E 023°37'0 0.0
2017-Dec-14 06:57N 37°58' E 023°37'0 0.0
2017-Dec-14 06:27N 37°58' E 023°37'0 0.4
2017-Dec-14 05:35N 37°57' E 023°36'0 7.2
2017-Dec-14 05:30N 37°57' E 023°36'3 6.6
2017-Dec-14 04:59N 37°60' E 023°33'2 0.2
2017-Dec-13 15:43N 38°01' E 023°35'2 7.4
2017-Dec-13 15:30N 38°00' E 023°34'3 6.6
2017-Dec-13 15:01N 37°57' E 023°35'3 5.0
2017-Dec-13 14:27N 37°57' E 023°38'0 0.0
2017-Dec-13 13:57N 37°57' E 023°38'0 0.0
2017-Dec-13 13:30N 37°57' E 023°38'0 0.0
2017-Dec-13 12:54N 37°57' E 023°38'0 0.0
2017-Dec-13 12:27N 37°57' E 023°38'0 0.0
2017-Dec-13 11:57N 37°57' E 023°38'0 0.0
2017-Dec-13 11:30N 37°57' E 023°38'0 0.0
2017-Dec-13 11:00N 37°57' E 023°38'0 0.0
2017-Dec-13 10:27N 37°57' E 023°38'0 0.2
2017-Dec-13 10:00N 37°57' E 023°38'0 0.9
2017-Dec-13 09:30N 37°57' E 023°38'0 0.0
2017-Dec-13 08:57N 37°57' E 023°38'0 0.0
2017-Dec-13 08:28N 37°57' E 023°38'0 0.0
2017-Dec-13 08:00N 37°57' E 023°38'0 0.0
2017-Dec-13 07:30N 37°57' E 023°38'0 0.1
2017-Dec-13 07:00N 37°57' E 023°38'2 3.1
2017-Dec-13 06:30N 37°57' E 023°36'0 0.9
2017-Dec-13 06:00N 37°58' E 023°37'0 0.0
2017-Dec-13 05:18N 37°58' E 023°37'0 0.0
2017-Dec-13 05:00N 37°58' E 023°37'0 0.0
2017-Dec-13 04:30N 37°58' E 023°37'0 0.0
2017-Dec-13 04:00N 37°58' E 023°37'0 0.0
2017-Dec-13 03:27N 37°58' E 023°37'0 0.0
2017-Dec-13 03:00N 37°58' E 023°37'0 0.0
2017-Dec-13 02:30N 37°58' E 023°37'0 0.0
2017-Dec-13 01:54N 37°58' E 023°37'0 0.0
2017-Dec-13 01:24N 37°58' E 023°37'0 0.0
2017-Dec-13 00:54N 37°58' E 023°37'0 0.0
2017-Dec-13 00:30N 37°58' E 023°37'0 0.0
2017-Dec-12 23:57N 37°58' E 023°37'0 0.0
2017-Dec-12 23:30N 37°58' E 023°37'0 0.0
2017-Dec-12 23:00N 37°58' E 023°37'0 0.0
2017-Dec-12 22:27N 37°58' E 023°37'0 0.0
2017-Dec-12 21:58N 37°58' E 023°37'0 0.0
2017-Dec-12 21:18N 37°58' E 023°37'0 0.0
2017-Dec-12 21:00N 37°58' E 023°37'0 0.0
2017-Dec-12 20:28N 37°58' E 023°37'0 0.0
2017-Dec-12 19:57N 37°58' E 023°37'0 0.0
2017-Dec-12 19:30N 37°58' E 023°37'0 0.0
2017-Dec-12 18:57N 37°58' E 023°37'0 0.0
2017-Dec-12 18:30N 37°58' E 023°37'0 0.0
2017-Dec-12 17:57N 37°58' E 023°37'0 0.0
2017-Dec-12 17:30N 37°58' E 023°37'0 0.0
2017-Dec-12 16:57N 37°58' E 023°37'0 0.2
2017-Dec-12 16:27N 37°57' E 023°37'2 3.2
2017-Dec-12 15:59N 37°57' E 023°38'0 0.0
2017-Dec-12 15:28N 37°57' E 023°38'0 0.0
2017-Dec-12 14:58N 37°57' E 023°38'0 0.0
2017-Dec-12 14:28N 37°57' E 023°38'0 0.0
2017-Dec-12 13:55N 37°57' E 023°38'1 2.3
2017-Dec-12 13:30N 37°56' E 023°37'4 8.7
2017-Dec-12 13:00N 37°53' E 023°33'0 0.8
2017-Dec-12 12:29N 37°53' E 023°32'0 0.0
2017-Dec-12 11:56N 37°53' E 023°32'0 0.0
2017-Dec-12 11:20N 37°53' E 023°32'0 0.1
2017-Dec-12 10:59N 37°53' E 023°32'0 0.0
2017-Dec-12 10:26N 37°53' E 023°32'0 0.2
2017-Dec-12 09:59N 37°53' E 023°32'1 2.4
2017-Dec-12 09:24N 37°52' E 023°32'0 0.0
2017-Dec-12 09:00N 37°52' E 023°32'0 0.0
2017-Dec-12 08:30N 37°52' E 023°32'0 0.0
2017-Dec-12 08:00N 37°52' E 023°32'0 0.0
2017-Dec-12 07:31N 37°52' E 023°32'0 0.0
2017-Dec-12 07:00N 37°52' E 023°32'0 0.0
2017-Dec-12 06:30N 37°52' E 023°32'0 0.1
2017-Dec-12 05:57N 37°52' E 023°32'3 6.0
2017-Dec-12 05:30N 37°54' E 023°34'3 6.3
2017-Dec-12 05:00N 37°57' E 023°34'3 6.8
2017-Dec-12 04:30N 38°01' E 023°34'1 0.2
2017-Dec-11 20:03N 38°02' E 023°36'0 2.6
2017-Dec-11 20:00N 38°02' E 023°35'3 7.1
2017-Dec-11 19:30N 38°02' E 023°31'1 0.1
2017-Dec-11 15:51N 38°02' E 023°31'1 3.2
2017-Dec-11 15:30N 38°01' E 023°32'0 0.0
2017-Dec-11 14:48N 38°01' E 023°32'0 0.0
2017-Dec-11 14:18N 38°01' E 023°32'0 0.1
2017-Dec-11 14:00N 38°01' E 023°32'0 0.2
2017-Dec-11 13:30N 38°01' E 023°32'1 0.9
2017-Dec-11 12:55N 38°01' E 023°32'0 0.0
2017-Dec-11 12:25N 38°01' E 023°32'0 0.0
2017-Dec-11 11:58N 38°01' E 023°32'0 0.1
2017-Dec-11 11:06N 38°01' E 023°32'0 5.3
2017-Dec-11 11:00N 38°00' E 023°33'4 7.5
2017-Dec-11 10:31N 37°57' E 023°35'0 0.3
2017-Dec-11 09:47N 37°57' E 023°35'0 0.0
2017-Dec-11 09:25N 37°57' E 023°35'0 0.0
2017-Dec-11 08:59N 37°57' E 023°35'0 0.0
2017-Dec-11 08:29N 37°57' E 023°35'0 0.0
2017-Dec-11 07:53N 37°57' E 023°35'0 0.0
2017-Dec-11 07:05N 37°57' E 023°35'0 0.1
2017-Dec-11 06:59N 37°57' E 023°35'0 0.0
2017-Dec-11 06:29N 37°57' E 023°35'0 0.0
2017-Dec-11 05:59N 37°57' E 023°35'0 0.0
2017-Dec-11 05:23N 37°57' E 023°35'0 0.0
2017-Dec-11 04:55N 37°57' E 023°35'0 0.0
2017-Dec-11 04:29N 37°57' E 023°35'1 1.3
2017-Dec-11 04:00N 37°57' E 023°36'1 1.8
2017-Dec-11 03:26N 37°58' E 023°37'0 0.0
2017-Dec-11 02:59N 37°58' E 023°37'0 0.0
2017-Dec-11 02:30N 37°58' E 023°37'0 0.0
2017-Dec-11 01:59N 37°58' E 023°37'0 0.0
2017-Dec-11 01:29N 37°58' E 023°37'0 0.0
2017-Dec-11 00:59N 37°58' E 023°37'0 0.0
2017-Dec-11 00:29N 37°58' E 023°37'0 0.0
2017-Dec-10 23:59N 37°58' E 023°37'0 0.0
2017-Dec-10 23:29N 37°58' E 023°37'0 0.0
2017-Dec-10 22:59N 37°58' E 023°37'0 0.0
2017-Dec-10 22:29N 37°58' E 023°37'0 0.0
2017-Dec-10 21:59N 37°58' E 023°37'0 0.0
2017-Dec-10 21:29N 37°58' E 023°37'0 0.0
2017-Dec-10 20:59N 37°58' E 023°37'0 0.0
2017-Dec-10 20:29N 37°58' E 023°37'0 0.0
2017-Dec-10 19:59N 37°58' E 023°37'0 0.0
2017-Dec-10 19:30N 37°58' E 023°37'0 0.0
2017-Dec-10 19:00N 37°58' E 023°37'0 0.0
2017-Dec-10 18:31N 37°58' E 023°37'0 0.0
2017-Dec-10 18:00N 37°58' E 023°37'0 0.0
2017-Dec-10 17:30N 37°58' E 023°37'0 0.0
2017-Dec-10 16:57N 37°58' E 023°37'0 0.0
2017-Dec-10 16:30N 37°58' E 023°37'0 0.0
2017-Dec-10 16:00N 37°58' E 023°37'0 0.0
2017-Dec-10 15:30N 37°58' E 023°37'0 0.2
2017-Dec-10 14:57N 37°58' E 023°37'0 0.3
2017-Dec-10 14:29N 37°58' E 023°36'0 0.0
2017-Dec-10 13:59N 37°58' E 023°36'0 0.0
2017-Dec-10 13:29N 37°58' E 023°36'0 0.0
2017-Dec-10 12:59N 37°58' E 023°36'0 0.1
2017-Dec-10 12:29N 37°58' E 023°36'0 0.4
2017-Dec-10 11:59N 37°57' E 023°37'0 0.1
2017-Dec-10 11:29N 37°57' E 023°37'0 0.0
2017-Dec-10 10:59N 37°58' E 023°37'0 0.0
2017-Dec-10 10:29N 37°58' E 023°37'0 0.0
2017-Dec-10 09:59N 37°58' E 023°37'0 0.0
2017-Dec-10 09:30N 37°58' E 023°37'0 0.0
2017-Dec-10 08:53N 37°58' E 023°37'0 0.0
2017-Dec-10 08:23N 37°58' E 023°37'0 0.0
2017-Dec-10 07:59N 37°58' E 023°37'0 0.0
2017-Dec-10 07:29N 37°58' E 023°37'0 0.0
2017-Dec-10 06:41N 37°58' E 023°37'0 0.0
2017-Dec-10 06:29N 37°58' E 023°37'0 0.0
2017-Dec-10 06:00N 37°58' E 023°37'0 0.0
2017-Dec-10 05:29N 37°58' E 023°37'0 0.0
2017-Dec-10 04:59N 37°58' E 023°37'0 0.0
2017-Dec-10 04:29N 37°58' E 023°37'0 0.0
2017-Dec-10 03:59N 37°58' E 023°37'0 0.0
2017-Dec-10 03:29N 37°58' E 023°37'0 0.0
2017-Dec-10 02:48N 37°58' E 023°37'0 0.0
2017-Dec-10 02:24N 37°58' E 023°37'0 0.0
2017-Dec-10 01:59N 37°58' E 023°37'0 0.0
2017-Dec-10 01:23N 37°58' E 023°37'0 0.0
2017-Dec-10 01:00N 37°58' E 023°37'0 0.0
2017-Dec-10 00:29N 37°58' E 023°37'0 0.0
2017-Dec-09 23:59N 37°58' E 023°37'0 0.0
2017-Dec-09 23:29N 37°57' E 023°37'0 0.0
2017-Dec-09 22:54N 37°58' E 023°37'0 0.0
2017-Dec-09 22:29N 37°58' E 023°37'0 0.0
2017-Dec-09 21:54N 37°58' E 023°37'0 0.0
2017-Dec-09 21:29N 37°58' E 023°37'0 0.0
2017-Dec-09 21:00N 37°58' E 023°37'0 0.0
2017-Dec-09 20:29N 37°58' E 023°37'0 0.0
2017-Dec-09 19:59N 37°58' E 023°37'0 0.0
2017-Dec-09 19:29N 37°58' E 023°37'0 0.0
2017-Dec-09 18:59N 37°58' E 023°37'0 0.0
2017-Dec-09 18:29N 37°58' E 023°37'0 0.0
2017-Dec-09 17:59N 37°58' E 023°37'0 0.0
2017-Dec-09 17:29N 37°58' E 023°37'0 0.0
2017-Dec-09 16:53N 37°58' E 023°37'0 0.0
2017-Dec-09 16:29N 37°58' E 023°37'0 0.0
2017-Dec-09 15:59N 37°58' E 023°37'0 0.0
2017-Dec-09 15:29N 37°58' E 023°37'0 0.0
2017-Dec-09 14:47N 37°58' E 023°37'0 0.0
2017-Dec-09 14:30N 37°58' E 023°37'0 0.0
2017-Dec-09 13:59N 37°58' E 023°37'0 0.0
2017-Dec-09 13:29N 37°58' E 023°37'0 0.0
2017-Dec-09 13:00N 37°58' E 023°37'0 0.0
2017-Dec-09 12:29N 37°58' E 023°37'0 0.0
2017-Dec-09 11:59N 37°58' E 023°37'0 0.0
2017-Dec-09 11:29N 37°58' E 023°37'0 0.0
2017-Dec-09 10:59N 37°58' E 023°37'0 0.0
2017-Dec-09 10:27N 37°58' E 023°37'0 0.0
2017-Dec-09 09:56N 37°58' E 023°37'1 2.8
2017-Dec-09 09:30N 37°56' E 023°37'1 2.0
2017-Dec-09 08:59N 37°57' E 023°38'0 0.0
2017-Dec-09 08:29N 37°57' E 023°38'0 0.0
2017-Dec-09 07:59N 37°57' E 023°38'0 0.0
2017-Dec-09 07:27N 37°57' E 023°38'0 0.0
2017-Dec-09 06:59N 37°57' E 023°38'0 0.0
2017-Dec-09 06:29N 37°57' E 023°38'0 0.1
2017-Dec-09 06:00N 37°57' E 023°38'3 5.6
2017-Dec-09 05:31N 37°57' E 023°35'3 6.3
2017-Dec-09 05:00N 37°60' E 023°33'2 0.3
2017-Dec-08 21:49N 38°02' E 023°35'0 0.3
2017-Dec-08 20:28N 38°02' E 023°35'3 5.6
2017-Dec-08 20:00N 38°02' E 023°32'0 0.1
2017-Dec-08 18:20N 38°02' E 023°32'0 0.3
2017-Dec-08 17:56N 38°02' E 023°32'0 0.1
2017-Dec-08 16:27N 38°02' E 023°32'0 0.8
2017-Dec-08 16:00N 38°01' E 023°32'4 7.9
2017-Dec-08 15:30N 37°57' E 023°33'3 5.1
2017-Dec-08 15:00N 37°57' E 023°36'0 0.3
2017-Dec-08 14:24N 37°58' E 023°37'0 0.0
2017-Dec-08 14:00N 37°58' E 023°37'0 0.0
2017-Dec-08 13:30N 37°58' E 023°37'0 0.0
2017-Dec-08 12:57N 37°58' E 023°37'0 0.0
2017-Dec-08 12:30N 37°58' E 023°37'0 0.0
2017-Dec-08 12:00N 37°58' E 023°37'0 0.0
2017-Dec-08 11:30N 37°58' E 023°37'0 0.0
2017-Dec-08 10:57N 37°58' E 023°37'0 0.0
2017-Dec-08 10:30N 37°58' E 023°37'0 0.0
2017-Dec-08 09:54N 37°58' E 023°37'0 0.0
2017-Dec-08 09:27N 37°58' E 023°37'0 0.0
2017-Dec-08 09:00N 37°58' E 023°37'0 0.0
2017-Dec-08 08:30N 37°58' E 023°37'0 0.0
2017-Dec-08 08:00N 37°58' E 023°37'0 0.0
2017-Dec-08 07:30N 37°58' E 023°37'0 0.0
2017-Dec-08 07:00N 37°58' E 023°37'0 0.0
2017-Dec-08 06:27N 37°58' E 023°37'0 0.0
2017-Dec-08 06:00N 37°58' E 023°37'0 0.0
2017-Dec-08 05:27N 37°58' E 023°37'0 0.0
2017-Dec-08 05:00N 37°58' E 023°37'  

Dump ship's entire track history